Date,TemperatureHighF,TemperatureAvgF,TemperatureLowF,DewpointHighF,DewpointAvgF,DewpointLowF,HumidityHigh,HumidityAvg,HumidityLow,PressureMaxIn,PressureMinIn,WindSpeedMaxMPH,WindSpeedAvgMPH,GustSpeedMaxMPH,PrecipitationSumIn
2013-10-1,66.6,59.5,53.4,43.3,32.5,27.1,58,37,24,29.77,29.68,3,0,8,0.00
2013-10-2,65.7,58.2,52.9,36.8,30.4,23.5,49,36,24,29.77,29.68,3,0,8,0.00
2013-10-3,66.6,59.9,50.4,26.7,20.0,14.9,36,22,15,29.83,29.71,5,0,8,0.00
2013-10-4,75.7,67.8,61.3,21.4,17.3,14.1,16,14,13,29.85,29.74,6,1,9,0.00
2013-10-5,78.1,67.3,59.0,22.5,18.0,13.5,24,15,12,29.97,29.85,5,0,7,0.04
2013-10-6,79.3,67.0,57.2,22.3,17.4,12.7,19,15,12,29.88,29.77,2,0,6,0.00
2013-10-7,72.3,62.3,54.3,31.0,20.1,13.0,40,21,13,29.77,29.65,5,1,9,0.00
2013-10-8,67.4,56.8,51.4,35.5,30.2,24.7,47,37,22,29.68,29.50,5,1,10,0.00
2013-10-9,63.7,56.4,50.7,32.9,28.1,21.1,48,35,20,29.53,29.38,5,0,8,0.00
2013-10-10,62.2,55.1,50.9,34.9,31.8,26.7,53,41,33,29.77,29.53,5,1,12,0.00
2013-10-11,58.6,53.1,49.6,36.2,34.0,30.2,56,49,37,29.85,29.74,3,1,8,0.00
2013-10-12,57.9,52.7,48.0,37.7,34.4,30.8,61,50,38,29.77,29.65,6,1,10,0.00
2013-10-13,66.2,56.4,49.5,39.6,30.7,19.5,61,40,17,29.83,29.68,3,0,8,0.00
2013-10-14,70.9,59.7,50.9,35.9,25.0,15.8,51,29,14,29.88,29.77,3,0,6,0.00
2013-10-15,75.0,62.5,53.5,32.4,20.2,12.8,39,21,13,29.80,29.71,3,0,7,0.00
2013-10-16,76.1,63.3,54.7,33.7,20.7,12.6,43,21,13,29.85,29.74,2,0,6,0.00
2013-10-17,74.0,62.2,53.6,30.5,19.7,12.4,41,20,13,29.85,29.74,3,0,7,0.00
2013-10-18,66.4,55.5,49.2,34.4,29.5,24.0,47,38,23,29.83,29.77,5,1,9,0.00
2013-10-19,72.1,56.5,47.8,35.7,29.3,23.3,49,37,16,29.83,29.77,3,0,8,0.04
2013-10-20,62.5,52.5,46.9,36.7,32.8,29.8,60,48,34,29.80,29.68,3,0,10,0.00
2013-10-21,59.4,51.8,48.6,38.7,36.2,31.0,65,56,37,29.80,29.68,3,0,8,0.00
2013-10-22,62.4,51.7,48.6,42.0,38.7,32.0,70,62,37,29.80,29.68,5,0,9,0.00
2013-10-23,61.5,51.8,48.4,39.9,37.7,30.9,69,59,36,29.77,29.65,6,0,10,0.00
2013-10-24,57.4,52.7,49.9,38.2,35.3,31.3,62,52,38,29.85,29.74,2,0,7,0.00
2013-10-25,61.9,54.4,48.6,38.2,34.8,31.5,62,48,35,29.94,29.83,3,0,8,0.00
2013-10-26,67.6,55.8,48.7,40.0,34.5,26.7,63,47,23,29.91,29.77,3,0,8,0.00
2013-10-27,58.1,52.6,48.8,39.9,36.2,31.3,66,54,37,29.80,29.44,5,1,10,0.00
2013-10-28,57.2,53.1,49.1,36.6,33.5,30.2,57,48,36,29.59,29.41,3,0,8,0.00
2013-10-29,59.9,54.7,42.6,47.1,35.1,19.3,90,51,29,29.80,29.59,3,1,7,0.00
2013-10-30,66.7,53.7,46.4,55.3,47.3,42.7,98,81,56,29.94,29.68,2,1,7,0.00
2013-10-31,72.9,55.7,47.7,55.1,46.8,41.4,96,74,44,29.91,29.83,3,1,6,0.00